createdAt,value
2022-08-03T00:01:35.797Z,6.38
2022-08-03T00:04:03.609Z,5.18
2022-08-03T00:06:36.903Z,5.85
2022-08-03T00:09:06.592Z,6.18
2022-08-03T00:11:34.580Z,5.53
2022-08-03T00:14:02.504Z,5.40
2022-08-03T00:16:30.309Z,5.50
2022-08-03T00:18:58.134Z,5.05
2022-08-03T00:21:28.736Z,5.32
2022-08-03T00:23:57.914Z,5.43
2022-08-03T00:26:25.664Z,5.78
2022-08-03T00:28:53.433Z,5.43
2022-08-03T00:31:23.129Z,5.38
2022-08-03T00:34:09.103Z,5.95
2022-08-03T00:36:36.892Z,5.28
2022-08-03T00:39:06.155Z,5.90
2022-08-03T00:41:33.944Z,5.47
2022-08-03T00:44:01.820Z,5.68
2022-08-03T00:46:29.616Z,4.78
2022-08-03T00:48:57.532Z,5.22
2022-08-03T00:51:25.446Z,4.65
2022-08-03T00:53:53.292Z,4.85
2022-08-03T00:56:22.495Z,4.78
2022-08-03T00:58:51.208Z,4.28
2022-08-03T01:01:19.043Z,4.63
2022-08-03T01:03:47.434Z,4.85
2022-08-03T01:06:19.807Z,4.43
2022-08-03T01:08:53.460Z,4.88
2022-08-03T01:12:00.310Z,6.07
2022-08-03T01:14:34.852Z,5.18
2022-08-03T01:17:12.112Z,4.55
2022-08-03T01:19:47.638Z,5.07
2022-08-03T01:22:56.886Z,4.22
2022-08-03T01:25:36.309Z,5.18
2022-08-03T01:28:20.956Z,5.25
2022-08-03T01:30:53.650Z,4.22
2022-08-03T01:33:26.963Z,5.00
2022-08-03T01:36:00.670Z,5.28
2022-08-03T01:38:33.084Z,4.30
2022-08-03T01:41:05.457Z,5.35
2022-08-03T01:44:28.092Z,5.05
2022-08-03T01:46:25.689Z,4.85
2022-08-03T01:48:55.238Z,5.32
2022-08-03T01:51:24.760Z,5.28
2022-08-03T01:54:13.577Z,5.43
2022-08-03T01:56:43.680Z,4.90
2022-08-03T01:59:15.518Z,5.00
2022-08-03T02:02:15.494Z,5.57
2022-08-03T02:04:35.677Z,5.80
2022-08-03T02:07:04.107Z,6.05
2022-08-03T02:09:33.057Z,6.38
2022-08-03T02:12:01.874Z,6.88
2022-08-03T02:14:30.890Z,6.47
2022-08-03T02:17:00.694Z,7.38
2022-08-03T02:19:35.270Z,6.72
2022-08-03T02:22:04.615Z,7.78
2022-08-03T02:24:33.050Z,7.38
2022-08-03T02:27:02.147Z,7.78
2022-08-03T02:29:40.050Z,7.72
2022-08-03T02:32:15.296Z,7.43
2022-08-03T02:34:47.422Z,6.18
2022-08-03T02:37:19.231Z,5.80
2022-08-03T02:39:49.006Z,5.68
2022-08-03T02:42:20.006Z,5.38
2022-08-03T02:44:52.092Z,5.63
2022-08-03T02:47:22.309Z,4.90
2022-08-03T02:49:52.641Z,4.82
2022-08-03T02:52:24.316Z,4.93
2022-08-03T02:54:55.786Z,4.38
2022-08-03T02:57:25.925Z,4.55
2022-08-03T02:59:56.304Z,4.28
2022-08-03T03:02:26.438Z,4.30
2022-08-03T03:05:56.803Z,4.80
2022-08-03T03:07:52.099Z,5.25
2022-08-03T03:10:22.500Z,5.05
2022-08-03T03:12:52.361Z,4.88
2022-08-03T03:15:20.388Z,4.90
2022-08-03T03:17:51.268Z,5.53
2022-08-03T03:20:29.440Z,6.13
2022-08-03T03:23:00.974Z,5.78
2022-08-03T03:25:29.865Z,4.88
2022-08-03T03:27:58.152Z,5.38
2022-08-03T03:30:26.591Z,5.22
2022-08-03T03:32:56.281Z,4.82
2022-08-03T03:35:24.628Z,5.45
2022-08-03T03:37:53.300Z,5.40
2022-08-03T03:40:21.444Z,4.85
2022-08-03T03:42:50.347Z,4.90
2022-08-03T03:45:19.772Z,5.00
2022-08-03T03:47:48.134Z,5.00
2022-08-03T03:50:20.273Z,4.90
2022-08-03T03:52:48.065Z,5.20
2022-08-03T03:55:19.031Z,5.30
2022-08-03T03:57:47.587Z,4.45
2022-08-03T04:00:16.828Z,4.50
2022-08-03T04:02:44.952Z,4.63
2022-08-03T04:05:30.577Z,4.93
2022-08-03T04:08:19.690Z,5.30
2022-08-03T04:11:01.586Z,4.80
2022-08-03T04:13:32.997Z,5.63
2022-08-03T04:16:02.387Z,4.82
2022-08-03T04:18:33.593Z,5.53
2022-08-03T04:21:04.797Z,4.75
2022-08-03T04:23:36.850Z,5.18
2022-08-03T04:26:09.674Z,5.22
2022-08-03T04:28:41.134Z,4.47
2022-08-03T04:31:09.278Z,4.28
2022-08-03T04:33:39.528Z,4.97
2022-08-03T04:36:11.330Z,5.55
2022-08-03T04:38:48.179Z,5.80
2022-08-03T04:41:16.579Z,5.35
2022-08-03T04:43:45.478Z,5.60
2022-08-03T04:46:14.162Z,5.50
2022-08-03T04:48:44.731Z,5.18
2022-08-03T04:51:13.437Z,5.10
2022-08-03T04:53:44.369Z,5.10
2022-08-03T04:56:12.530Z,5.68
2022-08-03T04:58:40.438Z,5.00
2022-08-03T05:01:08.690Z,4.70
2022-08-03T05:03:36.578Z,5.07
2022-08-03T05:06:11.408Z,5.10
2022-08-03T05:08:46.411Z,5.88
2022-08-03T05:11:16.327Z,4.65
2022-08-03T05:13:44.440Z,4.93
2022-08-03T05:16:15.912Z,4.95
2022-08-03T05:18:46.187Z,5.65
2022-08-03T05:21:16.686Z,4.85
2022-08-03T05:23:44.916Z,5.22
2022-08-03T05:26:13.150Z,5.05
2022-08-03T05:28:50.829Z,4.93
2022-08-03T05:31:19.992Z,5.25
2022-08-03T05:33:48.979Z,4.78
2022-08-03T05:36:17.115Z,5.72
2022-08-03T05:38:44.886Z,4.78
2022-08-03T05:41:21.290Z,5.60
2022-08-03T05:43:52.637Z,5.70
2022-08-03T05:46:21.063Z,6.43
2022-08-03T05:48:48.913Z,5.45
2022-08-03T05:51:16.767Z,5.13
2022-08-03T05:53:45.314Z,5.78
2022-08-03T05:56:16.002Z,5.38
2022-08-03T05:58:46.093Z,5.03
2022-08-03T06:01:16.029Z,5.05
2022-08-03T06:03:43.935Z,6.43
2022-08-03T06:06:12.161Z,6.15
2022-08-03T06:08:40.592Z,5.57
2022-08-03T06:11:10.293Z,6.05
2022-08-03T06:13:38.141Z,5.70
2022-08-03T06:16:09.241Z,6.35
2022-08-03T06:18:38.952Z,7.00
2022-08-03T06:21:14.283Z,5.70
2022-08-03T06:23:53.333Z,5.65
2022-08-03T06:26:24.992Z,5.43
2022-08-03T06:28:54.567Z,5.10
2022-08-03T06:31:25.939Z,5.20
2022-08-03T06:34:34.225Z,5.30
2022-08-03T06:36:53.141Z,5.95
2022-08-03T06:39:23.453Z,6.55
2022-08-03T06:41:53.432Z,5.68
2022-08-03T06:44:21.339Z,5.00
2022-08-03T06:46:49.055Z,5.03
2022-08-03T06:49:18.846Z,4.72
2022-08-03T06:52:37.069Z,4.78
2022-08-03T06:54:37.145Z,3.88
2022-08-03T06:57:06.043Z,3.47
2022-08-03T07:00:09.092Z,4.00
2022-08-03T07:02:24.654Z,3.92
2022-08-03T07:04:58.026Z,3.65
2022-08-03T07:07:25.886Z,3.72
2022-08-03T07:09:57.019Z,3.63
2022-08-03T07:12:27.178Z,3.47
2022-08-03T07:15:01.208Z,3.50
2022-08-03T07:17:30.954Z,4.03
2022-08-03T07:20:01.315Z,3.60
2022-08-03T07:22:29.381Z,4.15
2022-08-03T07:24:57.573Z,3.60
2022-08-03T07:27:28.164Z,3.75
2022-08-03T07:29:56.191Z,3.92
2022-08-03T07:32:25.768Z,3.80
2022-08-03T07:34:58.292Z,3.78
2022-08-03T07:37:30.346Z,4.05
2022-08-03T07:39:58.372Z,4.13
2022-08-03T07:42:26.190Z,4.00
2022-08-03T07:44:54.015Z,3.97
2022-08-03T07:47:23.962Z,3.55
2022-08-03T07:49:51.820Z,3.35
2022-08-03T07:52:36.941Z,3.10
2022-08-03T07:55:07.476Z,2.83
2022-08-03T07:57:36.158Z,3.50
2022-08-03T08:00:06.513Z,2.50
2022-08-03T08:02:43.905Z,2.70
2022-08-03T08:05:12.571Z,2.50
2022-08-03T08:07:40.961Z,3.08
2022-08-03T08:10:11.627Z,2.38
2022-08-03T08:12:41.371Z,2.67
2022-08-03T08:15:10.139Z,2.95
2022-08-03T08:17:46.475Z,2.55
2022-08-03T08:20:18.900Z,2.85
2022-08-03T08:22:58.096Z,2.85
2022-08-03T08:25:27.494Z,2.88
2022-08-03T08:28:31.032Z,2.90
2022-08-03T08:30:43.777Z,2.80
2022-08-03T08:33:22.449Z,2.88
2022-08-03T08:35:53.062Z,2.30
2022-08-03T08:38:21.208Z,2.50
2022-08-03T08:40:50.596Z,2.90
2022-08-03T08:43:18.516Z,2.65
2022-08-03T08:45:47.413Z,2.78
2022-08-03T08:48:16.536Z,2.70
2022-08-03T08:50:45.018Z,3.08
2022-08-03T08:53:17.583Z,2.38
2022-08-03T08:55:59.419Z,2.33
2022-08-03T08:58:33.816Z,2.67
2022-08-03T09:01:01.756Z,2.30
2022-08-03T09:03:30.938Z,2.55
2022-08-03T09:06:01.317Z,2.35
2022-08-03T09:08:30.346Z,2.38
2022-08-03T09:10:58.333Z,2.42
2022-08-03T09:13:26.411Z,2.20
2022-08-03T09:16:15.243Z,2.33
2022-08-03T09:18:44.154Z,2.58
2022-08-03T09:21:32.301Z,2.72
2022-08-03T09:24:05.196Z,2.63
2022-08-03T09:26:35.709Z,2.63
2022-08-03T09:29:10.903Z,2.78
2022-08-03T09:31:46.455Z,3.10
2022-08-03T09:34:16.655Z,4.32
2022-08-03T09:36:48.661Z,2.70
2022-08-03T09:39:17.762Z,2.67
2022-08-03T09:41:47.166Z,2.65
2022-08-03T09:44:24.663Z,2.70
2022-08-03T09:46:57.235Z,2.67
2022-08-03T09:49:25.865Z,2.50
2022-08-03T09:52:31.467Z,1.95
2022-08-03T09:54:42.422Z,2.13
2022-08-03T09:57:20.884Z,1.80
2022-08-03T09:59:48.817Z,2.40
2022-08-03T10:02:25.428Z,2.40
2022-08-03T10:04:54.156Z,2.45
2022-08-03T10:07:23.860Z,3.20
2022-08-03T10:09:56.641Z,2.33
2022-08-03T10:12:25.312Z,2.42
2022-08-03T10:14:53.952Z,2.17
2022-08-03T10:17:22.869Z,2.30
2022-08-03T10:19:52.188Z,2.13
2022-08-03T10:22:23.480Z,1.92
2022-08-03T10:24:56.816Z,2.03
2022-08-03T10:27:25.872Z,2.28
2022-08-03T10:29:56.301Z,1.60
2022-08-03T10:32:29.776Z,1.40
2022-08-03T10:35:19.135Z,1.73
2022-08-03T10:37:57.184Z,1.50
2022-08-03T10:43:20.912Z,1.50
2022-08-03T10:45:49.249Z,1.63
2022-08-03T10:48:18.313Z,1.45
2022-08-03T10:50:49.505Z,1.30
2022-08-03T10:53:18.661Z,1.23
2022-08-03T10:56:05.772Z,1.40
2022-08-03T10:58:53.483Z,1.27
2022-08-03T11:01:58.799Z,1.27
2022-08-03T11:04:29.263Z,1.25
2022-08-03T11:07:23.538Z,1.50
2022-08-03T11:09:52.702Z,1.70
2022-08-03T11:12:29.973Z,1.45
2022-08-03T11:15:02.330Z,1.50
2022-08-03T11:17:30.256Z,1.60
2022-08-03T11:19:58.708Z,1.90
2022-08-03T11:22:54.059Z,1.67
2022-08-03T11:25:54.756Z,1.70
2022-08-03T11:28:36.876Z,1.40
2022-08-03T11:31:51.460Z,1.73
2022-08-03T11:34:19.766Z,1.73
2022-08-03T11:37:23.573Z,1.30
2022-08-03T11:39:56.942Z,1.52
2022-08-03T11:42:48.259Z,1.50
2022-08-03T11:45:16.780Z,1.58
2022-08-03T11:47:50.764Z,1.73
2022-08-03T11:50:21.145Z,1.60
2022-08-03T11:52:50.157Z,1.42
2022-08-03T11:55:22.103Z,1.60
2022-08-03T11:58:58.059Z,1.35
2022-08-03T12:00:38.276Z,1.70
2022-08-03T12:03:09.170Z,1.40
2022-08-03T12:05:39.388Z,1.73
2022-08-03T12:08:08.019Z,1.80
2022-08-03T12:10:38.215Z,1.30
2022-08-03T12:14:45.122Z,1.80
2022-08-03T12:15:59.168Z,1.88
2022-08-03T12:18:27.143Z,1.50
2022-08-03T12:21:05.832Z,1.92
2022-08-03T12:23:37.406Z,2.15
2022-08-03T12:26:08.636Z,1.60
2022-08-03T12:28:38.434Z,1.38
2022-08-03T12:31:09.305Z,2.35
2022-08-03T12:34:02.820Z,1.95
2022-08-03T12:36:32.117Z,1.77
2022-08-03T12:39:02.429Z,1.38
2022-08-03T12:41:35.834Z,2.20
2022-08-03T12:44:04.567Z,1.20
2022-08-03T12:46:34.340Z,1.33
2022-08-03T12:49:05.829Z,1.40
2022-08-03T12:51:35.681Z,1.83
2022-08-03T12:54:04.879Z,1.77
2022-08-03T12:56:34.346Z,1.80
2022-08-03T12:59:02.319Z,1.65
2022-08-03T13:01:38.139Z,1.40
2022-08-03T13:04:30.345Z,1.50
2022-08-03T13:07:03.407Z,1.45
2022-08-03T13:09:41.595Z,1.50
2022-08-03T13:12:13.301Z,1.63
2022-08-03T13:14:41.576Z,1.55
2022-08-03T13:17:12.425Z,1.60
2022-08-03T13:19:41.207Z,1.40
2022-08-03T13:22:13.433Z,1.65
2022-08-03T13:24:41.368Z,1.48
2022-08-03T13:28:04.928Z,1.25
2022-08-03T13:29:59.476Z,1.33
2022-08-03T13:32:27.774Z,1.73
2022-08-03T13:34:55.670Z,1.55
2022-08-03T13:37:23.847Z,1.50
2022-08-03T13:39:58.996Z,1.55
2022-08-03T13:42:31.220Z,1.50
2022-08-03T13:44:59.569Z,1.30
2022-08-03T13:47:27.656Z,1.40
2022-08-03T13:50:01.763Z,1.48
2022-08-03T13:52:31.668Z,1.63
2022-08-03T13:54:59.825Z,1.65
2022-08-03T13:58:03.796Z,1.17
2022-08-03T14:00:26.446Z,2.10
2022-08-03T14:03:02.946Z,1.40
2022-08-03T14:05:35.130Z,1.52
2022-08-03T14:08:05.291Z,1.63
2022-08-03T14:10:35.011Z,1.40
2022-08-03T14:13:02.810Z,1.70
2022-08-03T14:15:37.557Z,1.80
2022-08-03T14:18:06.737Z,1.60
2022-08-03T14:20:36.856Z,1.52
2022-08-03T14:23:07.580Z,1.60
2022-08-03T14:25:43.604Z,1.50
2022-08-03T14:28:18.913Z,1.50
2022-08-03T14:30:48.641Z,1.33
2022-08-03T14:33:20.069Z,1.63
2022-08-03T14:35:50.421Z,1.60
2022-08-03T14:38:19.153Z,1.92
2022-08-03T14:40:47.535Z,1.50
2022-08-03T14:43:17.777Z,1.30
2022-08-03T14:45:45.580Z,1.38
2022-08-03T14:50:27.964Z,1.42
2022-08-03T14:51:06.611Z,1.77
2022-08-03T14:53:35.703Z,1.80
2022-08-03T14:56:07.965Z,1.52
2022-08-03T14:58:38.194Z,1.58
2022-08-03T15:02:06.335Z,1.60
2022-08-03T15:03:56.802Z,1.67
2022-08-03T15:06:24.643Z,1.40
2022-08-03T15:09:20.906Z,1.58
2022-08-03T15:11:40.210Z,1.50
2022-08-03T15:14:09.537Z,1.70
2022-08-03T15:16:37.857Z,1.63
2022-08-03T15:20:01.316Z,1.50
2022-08-03T15:21:54.998Z,1.73
2022-08-03T15:24:22.947Z,1.27
2022-08-03T15:26:53.534Z,1.60
2022-08-03T15:30:07.257Z,1.48
2022-08-03T15:32:09.776Z,1.50
2022-08-03T15:34:39.167Z,1.50
2022-08-03T15:37:12.857Z,1.30
2022-08-03T15:39:59.621Z,1.70
2022-08-03T15:42:29.553Z,1.85
2022-08-03T15:44:57.404Z,1.20
2022-08-03T15:47:25.383Z,1.52
2022-08-03T15:49:54.618Z,1.60
2022-08-03T15:52:22.633Z,1.33
2022-08-03T15:54:50.750Z,1.55
2022-08-03T15:57:19.097Z,1.48
2022-08-03T15:59:47.232Z,1.48
2022-08-03T16:02:15.360Z,1.42
2022-08-03T16:04:43.573Z,1.95
2022-08-03T16:07:15.708Z,1.52
2022-08-03T16:09:44.323Z,1.70
2022-08-03T16:12:16.327Z,1.85
2022-08-03T16:14:53.769Z,1.55
2022-08-03T16:17:22.629Z,1.55
2022-08-03T16:19:50.757Z,1.50
2022-08-03T16:22:23.035Z,1.70
2022-08-03T16:24:51.849Z,1.63
2022-08-03T16:27:37.328Z,1.67
2022-08-03T16:30:10.524Z,1.77
2022-08-03T16:32:39.803Z,1.63
2022-08-03T16:35:08.445Z,1.60
2022-08-03T16:37:39.211Z,1.45
2022-08-03T16:40:19.161Z,1.77
2022-08-03T16:42:47.664Z,1.70
2022-08-03T16:45:15.703Z,1.73
2022-08-03T16:47:43.600Z,2.20
2022-08-03T16:50:19.020Z,1.70
2022-08-03T16:52:48.842Z,1.77
2022-08-03T16:55:42.893Z,1.27
2022-08-03T16:58:05.748Z,1.30
2022-08-03T17:00:41.518Z,1.65
2022-08-03T17:03:18.591Z,1.40
2022-08-03T17:05:49.686Z,2.10
2022-08-03T17:08:26.628Z,1.92
2022-08-03T17:10:56.076Z,1.70
2022-08-03T17:13:39.294Z,6.80
2022-08-03T17:16:12.088Z,3.08
2022-08-03T17:18:51.901Z,1.92
2022-08-03T17:21:25.862Z,2.00
2022-08-03T17:24:05.263Z,2.20
2022-08-03T17:26:44.771Z,1.60
2022-08-03T17:29:14.564Z,1.77
2022-08-03T17:31:49.065Z,2.70
2022-08-03T17:34:18.925Z,1.70
2022-08-03T17:37:03.688Z,1.50
2022-08-03T17:42:30.678Z,1.38
2022-08-03T17:45:08.302Z,1.50
2022-08-03T17:47:43.860Z,1.50
2022-08-03T17:50:25.076Z,1.58
2022-08-03T17:53:07.510Z,1.80
2022-08-03T17:55:54.863Z,1.98
2022-08-03T17:58:39.625Z,1.80
2022-08-03T18:02:00.316Z,1.60
2022-08-03T18:04:30.019Z,1.65
2022-08-03T18:07:11.279Z,1.80
2022-08-03T18:10:04.538Z,1.60
2022-08-03T18:12:51.885Z,1.40
2022-08-03T18:15:26.025Z,1.40
2022-08-03T18:18:02.008Z,1.30
2022-08-03T18:20:40.895Z,1.42
2022-08-03T18:23:25.121Z,1.30
2022-08-03T18:26:01.381Z,1.08
2022-08-03T18:28:32.237Z,1.10
2022-08-03T18:31:04.261Z,1.25
2022-08-03T18:34:17.896Z,1.20
2022-08-03T18:36:29.929Z,1.52
2022-08-03T18:39:00.222Z,1.27
2022-08-03T18:41:33.530Z,2.03
2022-08-03T18:44:08.185Z,1.30
2022-08-03T18:46:51.430Z,1.42
2022-08-03T18:49:42.312Z,1.33
2022-08-03T18:52:17.947Z,1.20
2022-08-03T18:55:06.564Z,1.08
2022-08-03T18:57:43.364Z,1.02
2022-08-03T19:00:16.158Z,1.20
2022-08-03T19:02:50.232Z,1.08
2022-08-03T19:05:21.438Z,1.40
2022-08-03T19:07:58.424Z,1.25
2022-08-03T19:10:32.137Z,1.30
2022-08-03T19:13:05.423Z,1.40
2022-08-03T19:15:51.394Z,1.20
2022-08-03T19:18:22.499Z,1.13
2022-08-03T19:20:54.613Z,1.30
2022-08-03T19:23:24.940Z,1.40
2022-08-03T19:25:53.119Z,1.50
2022-08-03T19:31:12.859Z,1.52
2022-08-03T19:33:57.433Z,1.63
2022-08-03T19:36:28.603Z,1.58
2022-08-03T19:38:57.388Z,1.33
2022-08-03T19:41:41.649Z,1.40
2022-08-03T19:46:55.082Z,1.60
2022-08-03T19:50:06.201Z,1.95
2022-08-03T19:52:24.182Z,1.88
2022-08-03T19:54:55.243Z,1.42
2022-08-03T19:57:27.049Z,1.95
2022-08-03T19:59:57.305Z,1.75
2022-08-03T20:02:28.058Z,1.70
2022-08-03T20:04:59.645Z,1.90
2022-08-03T20:07:30.693Z,2.00
2022-08-03T20:10:01.371Z,2.00
2022-08-03T20:12:34.391Z,1.92
2022-08-03T20:15:09.049Z,1.88
2022-08-03T20:17:56.063Z,1.80
2022-08-03T20:20:28.084Z,2.00
2022-08-03T20:22:58.786Z,2.13
2022-08-03T20:25:38.579Z,2.00
2022-08-03T20:28:14.242Z,2.15
2022-08-03T20:30:47.215Z,1.63
2022-08-03T20:33:18.992Z,1.67
2022-08-03T20:35:49.640Z,1.65
2022-08-03T20:38:19.476Z,2.30
2022-08-03T20:40:48.488Z,2.40
2022-08-03T20:43:16.782Z,2.03
2022-08-03T20:46:00.028Z,1.75
2022-08-03T20:48:37.888Z,1.75
2022-08-03T20:51:19.391Z,1.73
2022-08-03T20:54:00.505Z,1.90
2022-08-03T20:56:33.660Z,1.80
2022-08-03T20:59:03.627Z,1.50
2022-08-03T21:01:35.950Z,1.73
2022-08-03T21:04:07.212Z,1.90
2022-08-03T21:06:53.408Z,1.88
2022-08-03T21:09:33.388Z,1.70
2022-08-03T21:12:13.316Z,1.50
2022-08-03T21:13:10.182Z,1.50
2022-08-03T21:14:51.883Z,1.95
2022-08-03T21:17:39.984Z,1.95
2022-08-03T21:20:12.099Z,2.13
2022-08-03T21:22:43.526Z,2.10
2022-08-03T21:25:15.038Z,1.88
2022-08-03T21:27:43.345Z,1.65
2022-08-03T21:30:12.707Z,1.92
2022-08-03T21:32:45.368Z,2.15
2022-08-03T21:35:15.968Z,2.03
2022-08-03T21:37:44.982Z,2.20
2022-08-03T21:40:15.384Z,1.90
2022-08-03T21:42:44.885Z,1.80
2022-08-03T21:45:17.437Z,2.13
2022-08-03T21:47:48.398Z,2.42
2022-08-03T21:50:18.197Z,1.90
2022-08-03T21:52:48.471Z,2.50
2022-08-03T21:55:18.590Z,1.90
2022-08-03T21:57:52.637Z,2.38
2022-08-03T22:00:22.895Z,2.00
2022-08-03T22:02:55.294Z,1.70
2022-08-03T22:05:29.135Z,1.95
2022-08-03T22:08:10.716Z,2.08
2022-08-03T22:10:38.919Z,2.05
2022-08-03T22:13:07.245Z,1.92
2022-08-03T22:15:35.252Z,1.80
2022-08-03T22:18:03.648Z,1.75
2022-08-03T22:20:33.225Z,1.75
2022-08-03T22:23:03.749Z,1.88
2022-08-03T22:25:33.538Z,1.77
2022-08-03T22:28:03.707Z,1.70
2022-08-03T22:30:33.095Z,1.70
2022-08-03T22:33:02.488Z,2.00
2022-08-03T22:35:48.054Z,1.73
2022-08-03T22:38:17.358Z,2.30
2022-08-03T22:40:45.926Z,1.90
2022-08-03T22:43:13.884Z,1.85
2022-08-03T22:46:11.223Z,2.15
2022-08-03T22:48:35.408Z,2.55
2022-08-03T22:51:10.686Z,2.38
2022-08-03T22:53:40.032Z,2.00
2022-08-03T22:56:08.681Z,2.08
2022-08-03T22:58:36.548Z,2.05
2022-08-03T23:01:06.918Z,2.00
2022-08-03T23:03:59.069Z,1.98
2022-08-03T23:06:32.403Z,2.03
2022-08-03T23:09:00.671Z,2.05
2022-08-03T23:11:29.548Z,2.10
2022-08-03T23:13:59.230Z,1.83
2022-08-03T23:16:29.504Z,1.67
2022-08-03T23:18:59.179Z,1.67
2022-08-03T23:21:53.326Z,1.90
2022-08-03T23:24:29.836Z,1.50
2022-08-03T23:26:58.717Z,1.88
2022-08-03T23:29:29.899Z,1.63
2022-08-03T23:31:59.353Z,1.67
2022-08-03T23:34:46.847Z,1.50
2022-08-03T23:37:16.351Z,1.80
2022-08-03T23:39:46.479Z,1.73
2022-08-03T23:42:16.237Z,1.40
2022-08-03T23:44:45.748Z,1.80
2022-08-03T23:47:13.753Z,1.75
2022-08-03T23:49:41.697Z,1.77
2022-08-03T23:52:11.302Z,1.70
2022-08-03T23:54:52.252Z,1.63
2022-08-03T23:57:29.597Z,1.98
